sensor_id;sensor_type;location;lat;lon;timestamp;pressure;altitude;pressure_sealevel;temperature;humidity
72585;BME280;60618;40.084;32.908;2023-03-15T00:01:43;88965.16;;;3.33;89.11
72585;BME280;60618;40.084;32.908;2023-03-15T00:04:10;88979.63;;;3.38;88.96
72585;BME280;60618;40.084;32.908;2023-03-15T00:06:37;88974.06;;;3.18;88.98
72585;BME280;60618;40.084;32.908;2023-03-15T00:09:04;88965.56;;;3.23;88.83
72585;BME280;60618;40.084;32.908;2023-03-15T00:11:31;88961.78;;;3.24;88.83
72585;BME280;60618;40.084;32.908;2023-03-15T00:13:58;88966.47;;;3.10;89.12
72585;BME280;60618;40.084;32.908;2023-03-15T00:16:26;88947.47;;;3.16;89.11
72585;BME280;60618;40.084;32.908;2023-03-15T00:18:53;88944.53;;;2.95;89.97
72585;BME280;60618;40.084;32.908;2023-03-15T00:21:21;88934.00;;;3.13;89.55
72585;BME280;60618;40.084;32.908;2023-03-15T00:23:48;88922.03;;;3.12;89.20
72585;BME280;60618;40.084;32.908;2023-03-15T00:26:16;88929.34;;;3.18;89.42
72585;BME280;60618;40.084;32.908;2023-03-15T00:28:43;88919.84;;;3.02;89.58
72585;BME280;60618;40.084;32.908;2023-03-15T00:31:22;88916.47;;;2.74;89.89
72585;BME280;60618;40.084;32.908;2023-03-15T00:33:51;88908.41;;;2.77;90.19
72585;BME280;60618;40.084;32.908;2023-03-15T00:36:19;88906.94;;;2.49;91.60
72585;BME280;60618;40.084;32.908;2023-03-15T00:38:47;88907.09;;;2.54;92.24
72585;BME280;60618;40.084;32.908;2023-03-15T00:41:15;88911.19;;;2.55;92.49
72585;BME280;60618;40.084;32.908;2023-03-15T00:43:44;88917.59;;;2.45;92.95
72585;BME280;60618;40.084;32.908;2023-03-15T00:46:12;88895.84;;;2.45;93.66
72585;BME280;60618;40.084;32.908;2023-03-15T00:48:39;88894.94;;;2.39;93.75
72585;BME280;60618;40.084;32.908;2023-03-15T00:51:11;88892.00;;;2.27;93.87
72585;BME280;60618;40.084;32.908;2023-03-15T00:53:41;88889.69;;;2.39;94.41
72585;BME280;60618;40.084;32.908;2023-03-15T00:56:11;88904.19;;;2.71;92.84
72585;BME280;60618;40.084;32.908;2023-03-15T00:58:42;88877.47;;;2.54;93.02
72585;BME280;60618;40.084;32.908;2023-03-15T01:01:12;88887.38;;;2.68;92.59
72585;BME280;60618;40.084;32.908;2023-03-15T01:03:40;88864.78;;;2.80;92.60
72585;BME280;60618;40.084;32.908;2023-03-15T01:06:10;88881.41;;;2.86;92.24
72585;BME280;60618;40.084;32.908;2023-03-15T01:08:38;88875.28;;;2.89;91.92
72585;BME280;60618;40.084;32.908;2023-03-15T01:11:09;88887.38;;;2.96;91.68
72585;BME280;60618;40.084;32.908;2023-03-15T01:13:37;88881.56;;;3.01;91.13
72585;BME280;60618;40.084;32.908;2023-03-15T01:16:05;88876.00;;;3.08;91.48
72585;BME280;60618;40.084;32.908;2023-03-15T01:18:32;88869.41;;;3.12;91.28
72585;BME280;60618;40.084;32.908;2023-03-15T01:20:59;88865.00;;;3.28;91.18
72585;BME280;60618;40.084;32.908;2023-03-15T01:23:27;88859.44;;;3.35;90.78
72585;BME280;60618;40.084;32.908;2023-03-15T01:26:00;88875.09;;;3.29;90.43
72585;BME280;60618;40.084;32.908;2023-03-15T01:28:28;88872.03;;;3.12;90.08
72585;BME280;60618;40.084;32.908;2023-03-15T01:30:56;88868.56;;;2.97;90.30
72585;BME280;60618;40.084;32.908;2023-03-15T01:33:26;88880.81;;;3.00;90.77
72585;BME280;60618;40.084;32.908;2023-03-15T01:36:03;88881.13;;;2.84;91.00
72585;BME280;60618;40.084;32.908;2023-03-15T01:38:32;88880.22;;;2.60;92.04
72585;BME280;60618;40.084;32.908;2023-03-15T01:41:00;88885.47;;;2.60;92.49
72585;BME280;60618;40.084;32.908;2023-03-15T01:43:29;88878.66;;;2.71;92.01
72585;BME280;60618;40.084;32.908;2023-03-15T01:51:35;88861.41;;;2.70;92.70
72585;BME280;60618;40.084;32.908;2023-03-15T01:56:50;88858.91;;;2.67;93.15
72585;BME280;60618;40.084;32.908;2023-03-15T01:59:32;88880.22;;;2.60;92.77
72585;BME280;60618;40.084;32.908;2023-03-15T02:02:00;88876.44;;;2.61;93.61
72585;BME280;60618;40.084;32.908;2023-03-15T02:04:38;88867.38;;;2.52;93.61
72585;BME280;60618;40.084;32.908;2023-03-15T02:07:07;88854.09;;;2.47;93.68
72585;BME280;60618;40.084;32.908;2023-03-15T02:12:33;88853.47;;;2.24;95.80
72585;BME280;60618;40.084;32.908;2023-03-15T02:15:04;88832.75;;;2.26;96.00
72585;BME280;60618;40.084;32.908;2023-03-15T02:17:43;88838.47;;;2.34;96.12
72585;BME280;60618;40.084;32.908;2023-03-15T02:22:55;88833.03;;;2.19;96.10
72585;BME280;60618;40.084;32.908;2023-03-15T02:27:53;88835.84;;;2.34;95.87
72585;BME280;60618;40.084;32.908;2023-03-15T02:30:20;88838.75;;;2.45;95.75
72585;BME280;60618;40.084;32.908;2023-03-15T02:32:48;88844.16;;;2.51;95.35
72585;BME280;60618;40.084;32.908;2023-03-15T02:35:23;88852.75;;;2.51;95.49
72585;BME280;60618;40.084;32.908;2023-03-15T02:37:51;88834.38;;;2.51;94.60
72585;BME280;60618;40.084;32.908;2023-03-15T02:40:23;88836.72;;;2.59;94.49
72585;BME280;60618;40.084;32.908;2023-03-15T02:42:54;88845.31;;;2.77;93.91
72585;BME280;60618;40.084;32.908;2023-03-15T02:45:24;88838.88;;;2.78;94.01
72585;BME280;60618;40.084;32.908;2023-03-15T02:47:53;88844.31;;;2.84;93.16
72585;BME280;60618;40.084;32.908;2023-03-15T02:50:20;88839.94;;;2.81;92.79
72585;BME280;60618;40.084;32.908;2023-03-15T02:52:48;88849.28;;;2.64;93.01
72585;BME280;60618;40.084;32.908;2023-03-15T02:55:15;88839.94;;;2.35;94.05
72585;BME280;60618;40.084;32.908;2023-03-15T02:57:42;88838.16;;;2.41;94.29
72585;BME280;60618;40.084;32.908;2023-03-15T03:00:12;88834.06;;;2.40;94.37
72585;BME280;60618;40.084;32.908;2023-03-15T03:02:41;88839.03;;;2.38;94.31
72585;BME280;60618;40.084;32.908;2023-03-15T03:05:11;88848.66;;;2.32;94.76
72585;BME280;60618;40.084;32.908;2023-03-15T03:07:38;88837.75;;;2.52;94.83
72585;BME280;60618;40.084;32.908;2023-03-15T03:10:06;88836.59;;;2.62;94.45
72585;BME280;60618;40.084;32.908;2023-03-15T03:12:33;88829.13;;;2.88;93.47
72585;BME280;60618;40.084;32.908;2023-03-15T03:15:00;88845.75;;;2.76;92.61
72585;BME280;60618;40.084;32.908;2023-03-15T03:17:28;88839.06;;;2.75;92.44
72585;BME280;60618;40.084;32.908;2023-03-15T03:19:55;88828.97;;;2.92;92.60
72585;BME280;60618;40.084;32.908;2023-03-15T03:22:23;88838.16;;;2.96;92.21
72585;BME280;60618;40.084;32.908;2023-03-15T03:24:50;88837.28;;;2.90;92.16
72585;BME280;60618;40.084;32.908;2023-03-15T03:27:18;88850.44;;;2.53;92.52
72585;BME280;60618;40.084;32.908;2023-03-15T03:29:45;88837.41;;;2.22;93.63
72585;BME280;60618;40.084;32.908;2023-03-15T03:32:12;88839.28;;;2.13;94.05
72585;BME280;60618;40.084;32.908;2023-03-15T03:34:39;88845.75;;;2.30;94.93
72585;BME280;60618;40.084;32.908;2023-03-15T03:37:06;88843.41;;;2.32;94.50
72585;BME280;60618;40.084;32.908;2023-03-15T03:39:33;88836.28;;;2.51;94.51
72585;BME280;60618;40.084;32.908;2023-03-15T03:42:01;88834.81;;;2.68;93.80
72585;BME280;60618;40.084;32.908;2023-03-15T03:44:28;88839.22;;;2.71;93.53
72585;BME280;60618;40.084;32.908;2023-03-15T03:46:55;88843.13;;;2.67;93.35
72585;BME280;60618;40.084;32.908;2023-03-15T03:49:22;88836.13;;;2.73;93.12
72585;BME280;60618;40.084;32.908;2023-03-15T03:51:49;88852.47;;;2.59;93.03
72585;BME280;60618;40.084;32.908;2023-03-15T03:54:30;88846.94;;;2.38;93.28
72585;BME280;60618;40.084;32.908;2023-03-15T03:56:57;88866.50;;;2.37;93.58
72585;BME280;60618;40.084;32.908;2023-03-15T03:59:24;88859.31;;;2.19;94.21
72585;BME280;60618;40.084;32.908;2023-03-15T04:01:51;88855.94;;;2.10;95.04
72585;BME280;60618;40.084;32.908;2023-03-15T04:04:19;88865.47;;;2.35;95.49
72585;BME280;60618;40.084;32.908;2023-03-15T04:06:46;88857.28;;;2.51;94.80
72585;BME280;60618;40.084;32.908;2023-03-15T04:09:14;88851.63;;;2.43;94.43
72585;BME280;60618;40.084;32.908;2023-03-15T04:11:42;88861.25;;;2.55;94.98
72585;BME280;60618;40.084;32.908;2023-03-15T04:14:10;88850.44;;;2.53;94.45
72585;BME280;60618;40.084;32.908;2023-03-15T04:16:38;88858.47;;;2.59;94.45
72585;BME280;60618;40.084;32.908;2023-03-15T04:19:06;88861.41;;;2.79;94.14
72585;BME280;60618;40.084;32.908;2023-03-15T04:21:34;88859.94;;;2.78;93.21
72585;BME280;60618;40.084;32.908;2023-03-15T04:24:01;88857.75;;;2.68;93.27
72585;BME280;60618;40.084;32.908;2023-03-15T04:26:29;88861.53;;;2.58;93.17
72585;BME280;60618;40.084;32.908;2023-03-15T04:28:57;88865.31;;;2.38;93.25
72585;BME280;60618;40.084;32.908;2023-03-15T04:31:25;88865.31;;;2.29;93.82
72585;BME280;60618;40.084;32.908;2023-03-15T04:33:53;88883.13;;;2.25;94.46
72585;BME280;60618;40.084;32.908;2023-03-15T04:36:23;88878.16;;;2.36;94.50
72585;BME280;60618;40.084;32.908;2023-03-15T04:38:50;88872.31;;;2.41;95.10
72585;BME280;60618;40.084;32.908;2023-03-15T04:41:18;88871.16;;;2.42;94.57
72585;BME280;60618;40.084;32.908;2023-03-15T04:43:58;88888.81;;;2.33;94.49
72585;BME280;60618;40.084;32.908;2023-03-15T04:46:25;88877.84;;;2.25;94.91
72585;BME280;60618;40.084;32.908;2023-03-15T04:48:52;88872.00;;;2.21;95.75
72585;BME280;60618;40.084;32.908;2023-03-15T04:51:19;88874.94;;;2.41;95.52
72585;BME280;60618;40.084;32.908;2023-03-15T04:53:47;88875.25;;;2.34;95.31
72585;BME280;60618;40.084;32.908;2023-03-15T04:56:14;88883.41;;;2.36;95.50
72585;BME280;60618;40.084;32.908;2023-03-15T04:58:41;88885.44;;;2.32;94.86
72585;BME280;60618;40.084;32.908;2023-03-15T05:01:08;88892.75;;;2.37;94.54
72585;BME280;60618;40.084;32.908;2023-03-15T05:03:36;88893.94;;;2.45;94.40
72585;BME280;60618;40.084;32.908;2023-03-15T05:06:03;88886.09;;;2.64;93.92
72585;BME280;60618;40.084;32.908;2023-03-15T05:08:31;88886.09;;;2.64;93.92
72585;BME280;60618;40.084;32.908;2023-03-15T05:10:58;88887.25;;;2.53;93.59
72585;BME280;60618;40.084;32.908;2023-03-15T05:13:25;88898.84;;;2.16;94.33
72585;BME280;60618;40.084;32.908;2023-03-15T05:15:52;88904.75;;;1.89;95.65
72585;BME280;60618;40.084;32.908;2023-03-15T05:18:19;88893.22;;;1.95;96.79
72585;BME280;60618;40.084;32.908;2023-03-15T05:20:46;88893.97;;;2.05;97.06
72585;BME280;60618;40.084;32.908;2023-03-15T05:23:14;88895.47;;;2.15;96.69
72585;BME280;60618;40.084;32.908;2023-03-15T05:25:41;88893.22;;;2.54;96.49
72585;BME280;60618;40.084;32.908;2023-03-15T05:28:08;88903.03;;;2.72;95.87
72585;BME280;60618;40.084;32.908;2023-03-15T05:30:35;88899.25;;;2.82;95.28
72585;BME280;60618;40.084;32.908;2023-03-15T05:33:02;88894.72;;;2.92;94.79
72585;BME280;60618;40.084;32.908;2023-03-15T05:35:35;88895.59;;;2.98;94.58
72585;BME280;60618;40.084;32.908;2023-03-15T05:38:02;88899.81;;;3.04;94.22
72585;BME280;60618;40.084;32.908;2023-03-15T05:40:29;88898.94;;;3.26;93.96
72585;BME280;60618;40.084;32.908;2023-03-15T05:42:56;88911.78;;;3.33;93.37
72585;BME280;60618;40.084;32.908;2023-03-15T05:45:23;88896.84;;;3.48;92.59
72585;BME280;60618;40.084;32.908;2023-03-15T05:47:50;88899.75;;;3.50;90.79
72585;BME280;60618;40.084;32.908;2023-03-15T05:50:17;88907.22;;;3.52;91.06
72585;BME280;60618;40.084;32.908;2023-03-15T05:52:45;88910.25;;;3.59;90.69
72585;BME280;60618;40.084;32.908;2023-03-15T05:55:11;88913.75;;;3.65;89.84
72585;BME280;60618;40.084;32.908;2023-03-15T05:57:38;88915.38;;;3.63;89.54
72585;BME280;60618;40.084;32.908;2023-03-15T06:00:13;88918.75;;;3.63;89.32
72585;BME280;60618;40.084;32.908;2023-03-15T06:02:42;88915.41;;;3.54;88.13
72585;BME280;60618;40.084;32.908;2023-03-15T06:05:09;88917.00;;;3.69;86.78
72585;BME280;60618;40.084;32.908;2023-03-15T06:07:36;88915.66;;;3.65;87.70
72585;BME280;60618;40.084;32.908;2023-03-15T06:10:04;88915.22;;;3.66;87.18
72585;BME280;60618;40.084;32.908;2023-03-15T06:12:32;88911.75;;;3.51;87.17
72585;BME280;60618;40.084;32.908;2023-03-15T06:15:00;88904.31;;;3.40;87.94
72585;BME280;60618;40.084;32.908;2023-03-15T06:17:27;88909.47;;;3.26;88.69
72585;BME280;60618;40.084;32.908;2023-03-15T06:19:54;88911.06;;;3.05;90.34
72585;BME280;60618;40.084;32.908;2023-03-15T06:22:21;88915.00;;;3.09;90.57
72585;BME280;60618;40.084;32.908;2023-03-15T06:24:48;88895.41;;;3.29;91.03
72585;BME280;60618;40.084;32.908;2023-03-15T06:27:16;88906.66;;;3.38;90.95
72585;BME280;60618;40.084;32.908;2023-03-15T06:29:43;88884.56;;;3.45;90.66
72585;BME280;60618;40.084;32.908;2023-03-15T06:32:10;88892.97;;;3.67;90.74
72585;BME280;60618;40.084;32.908;2023-03-15T06:34:37;88899.09;;;3.83;90.63
72585;BME280;60618;40.084;32.908;2023-03-15T06:37:04;88883.72;;;3.90;89.53
72585;BME280;60618;40.084;32.908;2023-03-15T06:39:32;88896.66;;;4.03;88.92
72585;BME280;60618;40.084;32.908;2023-03-15T06:41:59;88885.84;;;3.59;88.47
72585;BME280;60618;40.084;32.908;2023-03-15T06:44:27;88892.91;;;3.44;87.84
72585;BME280;60618;40.084;32.908;2023-03-15T06:46:54;88892.66;;;3.05;88.96
72585;BME280;60618;40.084;32.908;2023-03-15T06:49:21;88888.97;;;3.21;90.62
72585;BME280;60618;40.084;32.908;2023-03-15T06:51:48;88885.16;;;3.31;90.25
72585;BME280;60618;40.084;32.908;2023-03-15T06:54:16;88880.00;;;3.55;90.44
72585;BME280;60618;40.084;32.908;2023-03-15T06:56:43;88864.50;;;3.57;91.28
72585;BME280;60618;40.084;32.908;2023-03-15T06:59:10;88872.44;;;3.90;90.54
72585;BME280;60618;40.084;32.908;2023-03-15T07:01:37;88872.38;;;4.08;90.75
72585;BME280;60618;40.084;32.908;2023-03-15T07:04:05;88865.72;;;3.37;89.65
72585;BME280;60618;40.084;32.908;2023-03-15T07:06:34;88874.06;;;3.36;90.41
72585;BME280;60618;40.084;32.908;2023-03-15T07:09:02;88879.53;;;3.65;90.48
72585;BME280;60618;40.084;32.908;2023-03-15T07:11:30;88860.25;;;3.68;89.50
72585;BME280;60618;40.084;32.908;2023-03-15T07:13:57;88878.66;;;3.68;89.29
72585;BME280;60618;40.084;32.908;2023-03-15T07:16:25;88860.44;;;3.89;88.97
72585;BME280;60618;40.084;32.908;2023-03-15T07:18:52;88862.38;;;4.12;88.02
72585;BME280;60618;40.084;32.908;2023-03-15T07:21:19;88861.97;;;4.38;88.60
72585;BME280;60618;40.084;32.908;2023-03-15T07:23:46;88865.16;;;4.42;87.49
72585;BME280;60618;40.084;32.908;2023-03-15T07:26:13;88850.91;;;4.48;87.04
72585;BME280;60618;40.084;32.908;2023-03-15T07:28:40;88842.38;;;4.30;86.24
72585;BME280;60618;40.084;32.908;2023-03-15T07:31:08;88853.56;;;4.24;87.71
72585;BME280;60618;40.084;32.908;2023-03-15T07:33:36;88849.69;;;4.35;87.88
72585;BME280;60618;40.084;32.908;2023-03-15T07:36:09;88853.50;;;4.34;86.93
72585;BME280;60618;40.084;32.908;2023-03-15T07:38:37;88843.50;;;4.62;88.08
72585;BME280;60618;40.084;32.908;2023-03-15T07:41:05;88831.59;;;4.66;86.17
72585;BME280;60618;40.084;32.908;2023-03-15T07:43:33;88830.25;;;4.71;88.13
72585;BME280;60618;40.084;32.908;2023-03-15T07:46:00;88821.94;;;4.87;86.75
72585;BME280;60618;40.084;32.908;2023-03-15T07:48:27;88802.50;;;5.14;85.62
72585;BME280;60618;40.084;32.908;2023-03-15T07:50:55;88804.09;;;5.56;85.69
72585;BME280;60618;40.084;32.908;2023-03-15T07:53:22;88808.63;;;6.00;84.96
72585;BME280;60618;40.084;32.908;2023-03-15T07:55:50;88802.44;;;5.88;82.76
72585;BME280;60618;40.084;32.908;2023-03-15T07:58:17;88817.28;;;5.85;84.25
72585;BME280;60618;40.084;32.908;2023-03-15T08:00:55;88830.78;;;5.87;84.71
72585;BME280;60618;40.084;32.908;2023-03-15T08:03:23;88847.56;;;5.84;85.96
72585;BME280;60618;40.084;32.908;2023-03-15T08:05:52;88866.78;;;5.70;85.88
72585;BME280;60618;40.084;32.908;2023-03-15T08:08:19;88874.59;;;5.64;85.20
72585;BME280;60618;40.084;32.908;2023-03-15T08:10:47;88877.50;;;5.81;85.88
72585;BME280;60618;40.084;32.908;2023-03-15T08:13:14;88883.72;;;6.08;84.51
72585;BME280;60618;40.084;32.908;2023-03-15T08:15:44;88882.03;;;6.25;83.82
72585;BME280;60618;40.084;32.908;2023-03-15T08:18:12;88893.22;;;6.49;84.72
72585;BME280;60618;40.084;32.908;2023-03-15T08:20:40;88887.78;;;6.59;81.39
72585;BME280;60618;40.084;32.908;2023-03-15T08:23:07;88881.75;;;6.93;83.82
72585;BME280;60618;40.084;32.908;2023-03-15T08:25:35;88865.28;;;7.30;78.23
72585;BME280;60618;40.084;32.908;2023-03-15T08:28:02;88874.09;;;7.67;77.38
72585;BME280;60618;40.084;32.908;2023-03-15T08:30:30;88865.72;;;8.06;78.98
72585;BME280;60618;40.084;32.908;2023-03-15T08:32:57;88860.75;;;7.88;76.77
72585;BME280;60618;40.084;32.908;2023-03-15T08:35:24;88866.03;;;7.30;79.43
72585;BME280;60618;40.084;32.908;2023-03-15T08:37:54;88863.06;;;7.49;76.85
72585;BME280;60618;40.084;32.908;2023-03-15T08:40:22;88859.53;;;7.83;78.97
72585;BME280;60618;40.084;32.908;2023-03-15T08:42:49;88875.84;;;7.76;78.43
72585;BME280;60618;40.084;32.908;2023-03-15T08:45:17;88879.69;;;7.75;77.90
72585;BME280;60618;40.084;32.908;2023-03-15T08:47:44;88899.53;;;7.59;77.97
72585;BME280;60618;40.084;32.908;2023-03-15T08:50:15;88911.56;;;7.34;77.43
72585;BME280;60618;40.084;32.908;2023-03-15T08:52:43;88902.41;;;7.35;79.29
72585;BME280;60618;40.084;32.908;2023-03-15T08:55:10;88895.47;;;7.38;80.23
72585;BME280;60618;40.084;32.908;2023-03-15T08:57:38;88893.72;;;7.55;78.42
72585;BME280;60618;40.084;32.908;2023-03-15T09:00:06;88901.88;;;8.04;79.46
72585;BME280;60618;40.084;32.908;2023-03-15T09:02:34;88888.00;;;8.46;77.36
72585;BME280;60618;40.084;32.908;2023-03-15T09:05:02;88890.44;;;8.98;77.22
72585;BME280;60618;40.084;32.908;2023-03-15T09:07:30;88878.97;;;9.23;76.26
72585;BME280;60618;40.084;32.908;2023-03-15T09:09:57;88888.13;;;9.22;74.42
72585;BME280;60618;40.084;32.908;2023-03-15T09:12:25;88886.59;;;9.04;73.75
72585;BME280;60618;40.084;32.908;2023-03-15T09:14:54;88895.72;;;8.49;77.80
72585;BME280;60618;40.084;32.908;2023-03-15T09:17:21;88880.84;;;8.32;76.59
72585;BME280;60618;40.084;32.908;2023-03-15T09:19:52;88889.16;;;8.39;77.01
72585;BME280;60618;40.084;32.908;2023-03-15T09:22:24;88880.84;;;8.32;78.67
72585;BME280;60618;40.084;32.908;2023-03-15T09:25:05;88869.16;;;8.12;79.36
72585;BME280;60618;40.084;32.908;2023-03-15T09:27:34;88876.56;;;8.08;80.53
72585;BME280;60618;40.084;32.908;2023-03-15T09:30:05;88871.00;;;8.01;81.50
72585;BME280;60618;40.084;32.908;2023-03-15T09:32:36;88863.88;;;7.86;80.65
72585;BME280;60618;40.084;32.908;2023-03-15T09:35:04;88862.00;;;7.92;80.98
72585;BME280;60618;40.084;32.908;2023-03-15T09:37:34;88875.28;;;7.98;80.89
72585;BME280;60618;40.084;32.908;2023-03-15T09:40:02;88870.00;;;7.98;81.37
72585;BME280;60618;40.084;32.908;2023-03-15T09:45:59;88866.81;;;8.25;79.81
72585;BME280;60618;40.084;32.908;2023-03-15T09:48:37;88869.59;;;8.37;79.21
72585;BME280;60618;40.084;32.908;2023-03-15T09:54:51;88868.91;;;8.42;79.99
72585;BME280;60618;40.084;32.908;2023-03-15T09:57:39;88859.88;;;8.34;78.65
72585;BME280;60618;40.084;32.908;2023-03-15T10:00:14;88844.28;;;8.36;79.33
72585;BME280;60618;40.084;32.908;2023-03-15T10:03:03;88844.63;;;8.55;79.29
72585;BME280;60618;40.084;32.908;2023-03-15T10:05:36;88856.06;;;8.77;78.91
72585;BME280;60618;40.084;32.908;2023-03-15T10:08:12;88843.31;;;8.87;77.21
72585;BME280;60618;40.084;32.908;2023-03-15T10:10:50;88843.50;;;8.72;76.56
72585;BME280;60618;40.084;32.908;2023-03-15T10:16:31;88842.41;;;9.01;77.27
72585;BME280;60618;40.084;32.908;2023-03-15T10:19:14;88849.25;;;9.19;77.08
72585;BME280;60618;40.084;32.908;2023-03-15T10:24:58;88842.81;;;9.48;75.37
72585;BME280;60618;40.084;32.908;2023-03-15T10:27:35;88825.09;;;9.23;75.26
72585;BME280;60618;40.084;32.908;2023-03-15T10:30:15;88821.38;;;8.98;75.55
72585;BME280;60618;40.084;32.908;2023-03-15T10:33:14;88815.41;;;9.14;77.36
72585;BME280;60618;40.084;32.908;2023-03-15T10:35:45;88810.16;;;9.36;76.77
72585;BME280;60618;40.084;32.908;2023-03-15T10:38:19;88818.09;;;9.25;74.65
72585;BME280;60618;40.084;32.908;2023-03-15T10:41:01;88812.75;;;9.14;74.87
72585;BME280;60618;40.084;32.908;2023-03-15T10:43:34;88795.69;;;9.60;74.39
72585;BME280;60618;40.084;32.908;2023-03-15T10:46:25;88788.19;;;9.70;72.93
72585;BME280;60618;40.084;32.908;2023-03-15T10:51:50;88794.47;;;9.61;74.34
72585;BME280;60618;40.084;32.908;2023-03-15T10:54:19;88780.94;;;9.59;74.38
72585;BME280;60618;40.084;32.908;2023-03-15T10:59:33;88765.00;;;9.70;74.14
72585;BME280;60618;40.084;32.908;2023-03-15T11:07:39;88746.69;;;11.33;71.19
72585;BME280;60618;40.084;32.908;2023-03-15T11:10:33;88731.28;;;11.86;68.81
72585;BME280;60618;40.084;32.908;2023-03-15T11:13:30;88746.69;;;12.04;66.59
72585;BME280;60618;40.084;32.908;2023-03-15T11:16:05;88724.91;;;12.25;65.71
72585;BME280;60618;40.084;32.908;2023-03-15T11:19:06;88738.31;;;12.43;63.54
72585;BME280;60618;40.084;32.908;2023-03-15T11:21:51;88728.78;;;11.93;64.70
72585;BME280;60618;40.084;32.908;2023-03-15T11:24:36;88730.44;;;11.31;65.77
72585;BME280;60618;40.084;32.908;2023-03-15T11:30:27;88718.78;;;11.70;66.18
72585;BME280;60618;40.084;32.908;2023-03-15T11:36:25;88714.09;;;11.10;68.77
72585;BME280;60618;40.084;32.908;2023-03-15T11:39:03;88728.06;;;11.22;68.10
72585;BME280;60618;40.084;32.908;2023-03-15T11:47:45;88726.09;;;11.63;67.78
72585;BME280;60618;40.084;32.908;2023-03-15T11:50:25;88721.88;;;11.02;68.34
72585;BME280;60618;40.084;32.908;2023-03-15T11:53:23;88720.44;;;11.01;68.07
72585;BME280;60618;40.084;32.908;2023-03-15T11:59:40;88726.72;;;11.45;69.14
72585;BME280;60618;40.084;32.908;2023-03-15T12:10:19;88723.81;;;11.43;66.17
72585;BME280;60618;40.084;32.908;2023-03-15T12:12:49;88720.25;;;11.29;69.81
72585;BME280;60618;40.084;32.908;2023-03-15T12:15:43;88716.00;;;11.15;67.93
72585;BME280;60618;40.084;32.908;2023-03-15T12:25:24;88714.53;;;11.85;66.43
72585;BME280;60618;40.084;32.908;2023-03-15T12:46:05;88681.09;;;11.84;65.61
72585;BME280;60618;40.084;32.908;2023-03-15T12:56:35;88677.13;;;12.83;62.94
72585;BME280;60618;40.084;32.908;2023-03-15T13:28:35;88678.44;;;11.49;62.58
72585;BME280;60618;40.084;32.908;2023-03-15T13:33:38;88680.97;;;11.65;63.50
72585;BME280;60618;40.084;32.908;2023-03-15T13:36:16;88672.59;;;11.86;59.47
72585;BME280;60618;40.084;32.908;2023-03-15T13:38:52;88677.94;;;12.10;59.14
72585;BME280;60618;40.084;32.908;2023-03-15T13:41:27;88673.66;;;12.02;59.39
72585;BME280;60618;40.084;32.908;2023-03-15T13:43:57;88664.84;;;11.52;59.76
72585;BME280;60618;40.084;32.908;2023-03-15T13:46:28;88652.69;;;11.27;59.98
72585;BME280;60618;40.084;32.908;2023-03-15T13:48:56;88652.97;;;11.23;61.76
72585;BME280;60618;40.084;32.908;2023-03-15T13:53:54;88652.75;;;11.51;61.24
72585;BME280;60618;40.084;32.908;2023-03-15T13:56:30;88655.44;;;11.76;59.19
72585;BME280;60618;40.084;32.908;2023-03-15T13:59:14;88647.91;;;11.80;59.99
72585;BME280;60618;40.084;32.908;2023-03-15T14:01:41;88648.63;;;11.80;60.00
72585;BME280;60618;40.084;32.908;2023-03-15T14:04:15;88651.69;;;11.90;62.20
72585;BME280;60618;40.084;32.908;2023-03-15T14:06:42;88652.94;;;11.89;60.70
72585;BME280;60618;40.084;32.908;2023-03-15T14:09:20;88652.66;;;11.62;61.31
72585;BME280;60618;40.084;32.908;2023-03-15T14:12:20;88651.44;;;11.63;61.87
72585;BME280;60618;40.084;32.908;2023-03-15T14:14:51;88651.25;;;11.86;60.63
72585;BME280;60618;40.084;32.908;2023-03-15T14:17:25;88650.25;;;11.89;60.13
72585;BME280;60618;40.084;32.908;2023-03-15T14:19:54;88654.66;;;11.86;61.42
72585;BME280;60618;40.084;32.908;2023-03-15T14:22:22;88645.69;;;11.54;62.57
72585;BME280;60618;40.084;32.908;2023-03-15T14:24:50;88657.69;;;11.42;64.00
72585;BME280;60618;40.084;32.908;2023-03-15T14:27:26;88647.94;;;11.44;64.26
72585;BME280;60618;40.084;32.908;2023-03-15T14:29:57;88657.19;;;11.68;63.08
72585;BME280;60618;40.084;32.908;2023-03-15T14:32:28;88661.38;;;11.63;61.67
72585;BME280;60618;40.084;32.908;2023-03-15T14:37:36;88668.41;;;11.30;63.49
72585;BME280;60618;40.084;32.908;2023-03-15T14:42:48;88667.16;;;11.37;64.30
72585;BME280;60618;40.084;32.908;2023-03-15T14:45:17;88667.69;;;11.30;64.51
72585;BME280;60618;40.084;32.908;2023-03-15T14:47:46;88660.72;;;11.21;64.44
72585;BME280;60618;40.084;32.908;2023-03-15T14:50:23;88658.81;;;11.16;63.27
72585;BME280;60618;40.084;32.908;2023-03-15T14:52:51;88661.00;;;11.18;64.71
72585;BME280;60618;40.084;32.908;2023-03-15T14:55:21;88659.84;;;11.07;64.71
72585;BME280;60618;40.084;32.908;2023-03-15T14:57:48;88664.28;;;10.94;65.86
72585;BME280;60618;40.084;32.908;2023-03-15T15:00:17;88663.41;;;10.80;66.22
72585;BME280;60618;40.084;32.908;2023-03-15T15:02:48;88663.69;;;10.71;66.65
72585;BME280;60618;40.084;32.908;2023-03-15T15:05:37;88673.88;;;10.67;67.23
72585;BME280;60618;40.084;32.908;2023-03-15T15:08:15;88675.28;;;10.79;67.17
72585;BME280;60618;40.084;32.908;2023-03-15T15:10:45;88670.31;;;10.94;66.51
72585;BME280;60618;40.084;32.908;2023-03-15T15:13:21;88674.00;;;10.91;66.16
72585;BME280;60618;40.084;32.908;2023-03-15T15:15:48;88668.75;;;10.74;67.05
72585;BME280;60618;40.084;32.908;2023-03-15T15:18:25;88684.00;;;10.74;69.20
72585;BME280;60618;40.084;32.908;2023-03-15T15:20:53;88684.63;;;10.44;73.08
72585;BME280;60618;40.084;32.908;2023-03-15T15:23:26;88694.13;;;10.06;74.59
72585;BME280;60618;40.084;32.908;2023-03-15T15:25:59;88693.91;;;9.87;75.38
72585;BME280;60618;40.084;32.908;2023-03-15T15:28:28;88697.56;;;9.84;76.07
72585;BME280;60618;40.084;32.908;2023-03-15T15:31:04;88691.03;;;9.74;76.27
72585;BME280;60618;40.084;32.908;2023-03-15T15:33:31;88690.81;;;9.66;76.69